createdAt,value
2019-03-19T00:01:23.481Z,4.60
2019-03-19T00:03:52.903Z,4.70
2019-03-19T00:06:24.168Z,4.60
2019-03-19T00:08:53.568Z,4.60
2019-03-19T00:11:26.524Z,4.60
2019-03-19T00:13:56.023Z,4.50
2019-03-19T00:16:25.424Z,4.50
2019-03-19T00:18:54.769Z,4.50
2019-03-19T00:21:24.192Z,4.40
2019-03-19T00:23:54.459Z,4.40
2019-03-19T00:26:23.835Z,4.40
2019-03-19T00:28:53.207Z,4.40
2019-03-19T00:31:25.845Z,4.40
2019-03-19T00:33:55.249Z,4.40
2019-03-19T00:36:24.583Z,4.40
2019-03-19T00:38:56.267Z,4.40
2019-03-19T00:41:25.690Z,4.40
2019-03-19T00:43:55.076Z,4.40
2019-03-19T00:46:25.148Z,4.40
2019-03-19T00:48:54.614Z,4.40
2019-03-19T00:51:24.727Z,4.40
2019-03-19T00:53:54.060Z,4.20
2019-03-19T00:56:23.512Z,4.10
2019-03-19T00:58:52.855Z,4.00
2019-03-19T01:01:22.714Z,4.10
2019-03-19T01:03:53.078Z,4.00
2019-03-19T01:06:22.482Z,3.90
2019-03-19T01:08:51.885Z,3.90
2019-03-19T01:11:21.288Z,3.90
2019-03-19T01:13:50.633Z,3.80
2019-03-19T01:16:20.040Z,3.80
2019-03-19T01:18:49.461Z,3.70
2019-03-19T01:21:18.821Z,3.60
2019-03-19T01:23:49.450Z,3.70
2019-03-19T01:26:18.816Z,3.70
2019-03-19T01:28:48.197Z,3.70
2019-03-19T01:31:17.505Z,3.80
2019-03-19T01:33:47.129Z,3.90
2019-03-19T01:36:16.909Z,3.90
2019-03-19T01:38:47.114Z,3.90
2019-03-19T01:41:16.473Z,4.00
2019-03-19T01:43:45.798Z,4.00
2019-03-19T01:46:15.138Z,4.00
2019-03-19T01:48:44.470Z,4.00
2019-03-19T01:51:13.867Z,4.00
2019-03-19T01:53:43.239Z,4.10
2019-03-19T01:56:13.489Z,4.10
2019-03-19T01:58:42.974Z,4.10
2019-03-19T02:01:12.372Z,4.10
2019-03-19T02:03:41.774Z,4.10
2019-03-19T02:06:11.223Z,4.10
2019-03-19T02:08:40.619Z,4.10
2019-03-19T02:11:15.335Z,4.20
2019-03-19T02:13:46.319Z,4.20
2019-03-19T02:16:16.866Z,4.20
2019-03-19T02:18:46.328Z,4.20
2019-03-19T02:21:15.660Z,4.20
2019-03-19T02:23:45.001Z,4.10
2019-03-19T02:26:16.763Z,4.10
2019-03-19T02:28:45.595Z,4.10
2019-03-19T02:31:15.024Z,4.00
2019-03-19T02:33:45.882Z,3.90
2019-03-19T02:36:15.833Z,3.90
2019-03-19T02:38:45.166Z,3.90
2019-03-19T02:41:14.590Z,3.90
2019-03-19T02:43:45.564Z,3.90
2019-03-19T02:46:15.875Z,3.80
2019-03-19T02:48:45.497Z,3.80
2019-03-19T02:51:14.966Z,3.70
2019-03-19T02:53:44.419Z,3.70
2019-03-19T02:56:13.857Z,3.60
2019-03-19T02:58:43.361Z,3.60
2019-03-19T03:01:14.387Z,3.60
2019-03-19T03:03:45.434Z,3.60
2019-03-19T03:06:14.900Z,3.60
2019-03-19T03:08:45.732Z,3.60
2019-03-19T03:11:15.656Z,3.60
2019-03-19T03:13:45.086Z,3.60
2019-03-19T03:16:15.816Z,3.60
2019-03-19T03:18:45.232Z,3.50
2019-03-19T03:21:17.351Z,3.40
2019-03-19T03:23:48.313Z,3.40
2019-03-19T03:26:17.750Z,3.30
2019-03-19T03:28:49.319Z,3.30
2019-03-19T03:31:18.722Z,3.30
2019-03-19T03:33:48.157Z,3.30
2019-03-19T03:36:18.808Z,3.20
2019-03-19T03:38:48.157Z,3.20
2019-03-19T03:41:17.611Z,3.30
2019-03-19T03:43:47.027Z,3.40
2019-03-19T03:46:16.523Z,3.40
2019-03-19T03:48:47.445Z,3.50
2019-03-19T03:51:16.784Z,3.50
2019-03-19T03:53:47.152Z,3.50
2019-03-19T03:56:16.550Z,3.50
2019-03-19T03:58:59.632Z,3.50
2019-03-19T04:01:17.225Z,3.50
2019-03-19T04:03:46.651Z,3.50
2019-03-19T04:06:16.077Z,3.50
2019-03-19T04:08:45.499Z,3.50
2019-03-19T04:11:14.952Z,3.60
2019-03-19T04:13:44.324Z,3.60
2019-03-19T04:16:13.712Z,3.60
2019-03-19T04:18:43.279Z,3.60
2019-03-19T04:21:12.770Z,3.70
2019-03-19T04:23:42.273Z,3.70
2019-03-19T04:26:11.748Z,3.70
2019-03-19T04:28:41.144Z,3.70
2019-03-19T04:31:11.540Z,3.70
2019-03-19T04:33:40.970Z,3.80
2019-03-19T04:36:10.348Z,3.80
2019-03-19T04:38:39.736Z,3.80
2019-03-19T04:41:09.276Z,3.80
2019-03-19T04:43:38.696Z,3.80
2019-03-19T04:46:08.127Z,3.80
2019-03-19T04:48:38.930Z,3.80
2019-03-19T04:51:08.412Z,3.80
2019-03-19T04:53:37.933Z,3.80
2019-03-19T04:56:08.933Z,3.80
2019-03-19T04:58:38.288Z,3.90
2019-03-19T05:01:07.675Z,3.80
2019-03-19T05:03:37.464Z,3.90
2019-03-19T05:06:06.870Z,3.90
2019-03-19T05:08:36.256Z,3.90
2019-03-19T05:11:05.618Z,3.90
2019-03-19T05:13:37.594Z,3.90
2019-03-19T05:16:08.124Z,3.90
2019-03-19T05:18:37.545Z,3.90
2019-03-19T05:21:07.034Z,3.90
2019-03-19T05:23:36.435Z,3.90
2019-03-19T05:26:05.754Z,3.90
2019-03-19T05:28:35.125Z,4.00
2019-03-19T05:31:05.759Z,4.00
2019-03-19T05:33:36.760Z,4.10
2019-03-19T05:36:07.083Z,4.10
2019-03-19T05:38:36.408Z,4.20
2019-03-19T05:41:06.849Z,4.10
2019-03-19T05:43:37.844Z,4.20
2019-03-19T05:46:07.857Z,4.20
2019-03-19T05:48:37.275Z,4.20
2019-03-19T05:51:07.814Z,4.20
2019-03-19T05:53:39.294Z,4.20
2019-03-19T05:56:08.736Z,4.10
2019-03-19T05:58:38.568Z,4.20
2019-03-19T06:01:08.554Z,4.20
2019-03-19T06:03:38.567Z,4.30
2019-03-19T06:06:09.037Z,4.40
2019-03-19T06:08:38.465Z,4.40
2019-03-19T06:11:07.899Z,4.40
2019-03-19T06:13:37.263Z,4.40
2019-03-19T06:16:06.789Z,4.40
2019-03-19T06:18:36.217Z,4.50
2019-03-19T06:21:05.671Z,4.50
2019-03-19T06:23:35.052Z,4.50
2019-03-19T06:26:04.429Z,4.60
2019-03-19T06:28:35.651Z,4.60
2019-03-19T06:31:06.516Z,4.70
2019-03-19T06:33:36.007Z,4.80
2019-03-19T06:36:05.406Z,4.90
2019-03-19T06:38:34.794Z,4.90
2019-03-19T06:41:04.140Z,5.00
2019-03-19T06:43:33.556Z,5.00
2019-03-19T06:46:03.015Z,5.10
2019-03-19T06:48:32.383Z,5.00
2019-03-19T06:51:01.751Z,4.90
2019-03-19T06:53:31.111Z,5.00
2019-03-19T06:56:01.440Z,4.90
2019-03-19T06:58:30.802Z,5.00
2019-03-19T07:01:00.233Z,4.90
2019-03-19T07:03:30.050Z,4.90
2019-03-19T07:06:05.394Z,4.80
2019-03-19T07:08:38.051Z,4.90
2019-03-19T07:11:10.207Z,4.90
2019-03-19T07:13:39.664Z,4.90
2019-03-19T07:16:08.998Z,4.90
2019-03-19T07:18:38.370Z,4.90
2019-03-19T07:21:07.707Z,5.00
2019-03-19T07:23:37.094Z,5.00
2019-03-19T07:26:07.678Z,5.10
2019-03-19T07:28:37.223Z,5.10
2019-03-19T07:31:06.548Z,5.20
2019-03-19T07:33:37.382Z,5.30
2019-03-19T07:36:08.253Z,5.40
2019-03-19T07:38:37.705Z,5.50
2019-03-19T07:41:08.436Z,5.40
2019-03-19T07:43:37.853Z,5.50
2019-03-19T07:46:10.160Z,5.70
2019-03-19T07:48:43.739Z,5.80
2019-03-19T07:51:15.251Z,5.70
2019-03-19T07:53:45.744Z,5.60
2019-03-19T07:56:16.483Z,5.80
2019-03-19T07:58:46.800Z,6.10
2019-03-19T08:01:16.202Z,6.40
2019-03-19T08:03:45.642Z,6.50
2019-03-19T08:06:14.958Z,6.40
2019-03-19T08:08:44.307Z,6.50
2019-03-19T08:11:13.687Z,6.50
2019-03-19T08:13:43.051Z,6.60
2019-03-19T08:16:12.399Z,6.60
2019-03-19T08:18:41.741Z,6.40
2019-03-19T08:21:11.156Z,6.30
2019-03-19T08:23:40.511Z,6.10
2019-03-19T08:26:09.951Z,6.50
2019-03-19T08:28:39.355Z,6.60
2019-03-19T08:31:08.746Z,7.00
2019-03-19T08:33:38.085Z,7.00
2019-03-19T08:36:09.591Z,7.00
2019-03-19T08:38:38.560Z,7.20
2019-03-19T08:41:07.927Z,7.50
2019-03-19T08:43:37.323Z,7.60
2019-03-19T08:46:06.664Z,7.70
2019-03-19T08:48:37.430Z,7.50
2019-03-19T08:51:07.174Z,7.50
2019-03-19T08:53:36.575Z,7.60
2019-03-19T08:56:05.921Z,7.30
2019-03-19T08:58:35.342Z,7.40
2019-03-19T09:01:05.787Z,7.60
2019-03-19T09:03:35.971Z,7.50
2019-03-19T09:06:05.375Z,7.50
2019-03-19T09:08:36.151Z,7.40
2019-03-19T09:11:05.639Z,7.60
2019-03-19T09:13:35.191Z,7.20
2019-03-19T09:16:05.215Z,7.20
2019-03-19T09:18:34.623Z,7.30
2019-03-19T09:21:03.953Z,7.60
2019-03-19T09:23:33.444Z,8.00
2019-03-19T09:26:02.973Z,8.10
2019-03-19T09:28:32.338Z,8.20
2019-03-19T09:31:01.959Z,8.10
2019-03-19T09:33:31.415Z,8.00
2019-03-19T09:36:00.877Z,7.80
2019-03-19T09:38:30.440Z,7.50
2019-03-19T09:41:01.005Z,7.60
2019-03-19T09:43:30.504Z,7.40
2019-03-19T09:45:59.912Z,7.10
2019-03-19T09:48:29.366Z,7.10
2019-03-19T09:50:58.815Z,7.20
2019-03-19T09:53:28.158Z,7.20
2019-03-19T09:55:57.511Z,7.10
2019-03-19T09:58:26.979Z,7.40
2019-03-19T10:00:56.369Z,7.50
2019-03-19T10:03:25.812Z,7.70
2019-03-19T10:06:19.107Z,7.70
2019-03-19T10:08:48.909Z,7.90
2019-03-19T10:11:19.009Z,8.30
2019-03-19T10:13:49.168Z,8.70
2019-03-19T10:16:18.636Z,8.60
2019-03-19T10:18:49.583Z,8.70
2019-03-19T10:21:19.056Z,8.60
2019-03-19T10:23:48.758Z,8.50
2019-03-19T10:26:18.169Z,8.10
2019-03-19T10:28:47.532Z,7.80
2019-03-19T10:31:18.264Z,7.70
2019-03-19T10:33:50.642Z,7.90
2019-03-19T10:36:20.072Z,8.40
2019-03-19T10:38:49.509Z,8.60
2019-03-19T10:41:18.913Z,8.30
2019-03-19T10:43:52.204Z,8.40
2019-03-19T10:46:21.611Z,8.50
2019-03-19T10:48:50.979Z,8.80
2019-03-19T10:51:20.421Z,8.90
2019-03-19T10:53:50.181Z,8.80
2019-03-19T10:56:19.673Z,8.70
2019-03-19T10:58:49.115Z,8.50
2019-03-19T11:01:18.901Z,8.40
2019-03-19T11:03:48.245Z,8.50
2019-03-19T11:06:17.585Z,8.20
2019-03-19T11:08:46.959Z,8.20
2019-03-19T11:11:16.374Z,8.30
2019-03-19T11:13:45.831Z,8.40
2019-03-19T11:16:15.257Z,8.50
2019-03-19T11:18:44.622Z,8.30
2019-03-19T11:21:13.960Z,8.30
2019-03-19T11:23:43.310Z,8.20
2019-03-19T11:26:14.269Z,8.20
2019-03-19T11:28:43.685Z,8.20
2019-03-19T11:31:13.210Z,8.20
2019-03-19T11:33:42.531Z,8.40
2019-03-19T11:36:11.874Z,8.40
2019-03-19T11:38:41.202Z,8.30
2019-03-19T11:41:11.544Z,8.40
2019-03-19T11:43:42.406Z,8.50
2019-03-19T11:46:11.763Z,8.60
2019-03-19T11:48:42.796Z,8.40
2019-03-19T11:51:13.435Z,8.40
2019-03-19T11:53:43.102Z,8.40
2019-03-19T11:56:20.762Z,8.40
2019-03-19T11:58:49.902Z,8.40
2019-03-19T12:01:19.258Z,8.20
2019-03-19T12:03:48.605Z,8.20
2019-03-19T12:06:19.134Z,8.30
2019-03-19T12:08:48.464Z,8.60
2019-03-19T12:11:17.780Z,8.80
2019-03-19T12:13:47.179Z,9.20
2019-03-19T12:16:16.585Z,9.60
2019-03-19T12:18:45.937Z,10.00
2019-03-19T12:21:15.410Z,10.10
2019-03-19T12:23:44.802Z,10.20
2019-03-19T12:26:14.155Z,10.20
2019-03-19T12:28:43.620Z,10.10
2019-03-19T12:31:12.982Z,9.90
2019-03-19T12:33:42.338Z,9.70
2019-03-19T12:36:11.739Z,9.50
2019-03-19T12:38:41.119Z,9.50
2019-03-19T12:41:10.510Z,9.30
2019-03-19T12:43:39.877Z,9.20
2019-03-19T12:46:10.454Z,9.30
2019-03-19T12:48:39.846Z,9.50
2019-03-19T12:51:09.231Z,9.40
2019-03-19T12:53:38.618Z,9.20
2019-03-19T12:56:08.040Z,9.40
2019-03-19T12:58:37.400Z,9.60
2019-03-19T13:01:06.896Z,9.60
2019-03-19T13:03:37.956Z,9.40
2019-03-19T13:06:07.421Z,9.40
2019-03-19T13:08:36.837Z,9.30
2019-03-19T13:11:07.287Z,9.00
2019-03-19T13:13:37.852Z,9.10
2019-03-19T13:16:07.169Z,9.10
2019-03-19T13:18:36.531Z,9.20
2019-03-19T13:21:05.937Z,9.30
2019-03-19T13:23:35.330Z,9.60
2019-03-19T13:26:04.730Z,9.80
2019-03-19T13:28:34.137Z,10.00
2019-03-19T13:31:03.549Z,10.10
2019-03-19T13:33:32.909Z,10.40
2019-03-19T13:36:02.279Z,10.70
2019-03-19T13:38:32.869Z,11.20
2019-03-19T13:41:02.344Z,11.70
2019-03-19T13:43:33.894Z,11.90
2019-03-19T13:46:03.441Z,11.70
2019-03-19T13:48:32.852Z,10.90
2019-03-19T13:51:02.850Z,10.10
2019-03-19T13:53:35.101Z,9.60
2019-03-19T13:56:04.511Z,9.30
2019-03-19T13:58:33.947Z,9.10
2019-03-19T14:01:03.360Z,9.00
2019-03-19T14:03:32.949Z,8.90
2019-03-19T14:06:02.481Z,9.10
2019-03-19T14:08:31.907Z,9.20
2019-03-19T14:11:02.033Z,9.50
2019-03-19T14:13:31.435Z,9.90
2019-03-19T14:16:04.337Z,10.10
2019-03-19T14:18:33.795Z,10.50
2019-03-19T14:21:03.276Z,10.70
2019-03-19T14:23:33.279Z,10.90
2019-03-19T14:26:02.712Z,11.00
2019-03-19T14:28:32.280Z,10.80
2019-03-19T14:31:08.376Z,10.20
2019-03-19T14:33:34.938Z,9.90
2019-03-19T14:36:05.927Z,9.60
2019-03-19T14:38:35.397Z,9.40
2019-03-19T14:41:06.976Z,9.30
2019-03-19T14:43:37.199Z,9.20
2019-03-19T14:46:06.804Z,9.30
2019-03-19T14:48:36.283Z,9.20
2019-03-19T14:51:05.789Z,9.10
2019-03-19T14:53:36.212Z,9.40
2019-03-19T14:56:05.842Z,9.50
2019-03-19T14:58:35.305Z,9.50
2019-03-19T15:01:05.998Z,9.40
2019-03-19T15:03:36.180Z,9.20
2019-03-19T15:06:05.619Z,9.20
2019-03-19T15:08:36.345Z,9.10
2019-03-19T15:11:07.269Z,9.10
2019-03-19T15:13:36.697Z,9.10
2019-03-19T15:16:06.210Z,9.10
2019-03-19T15:18:35.771Z,8.90
2019-03-19T15:21:06.780Z,8.80
2019-03-19T15:23:37.352Z,8.60
2019-03-19T15:26:08.592Z,8.50
2019-03-19T15:28:38.037Z,8.40
2019-03-19T15:31:07.409Z,8.60
2019-03-19T15:33:38.003Z,8.70
2019-03-19T15:36:07.369Z,9.00
2019-03-19T15:38:36.888Z,9.20
2019-03-19T15:41:06.287Z,9.10
2019-03-19T15:43:35.651Z,9.00
2019-03-19T15:46:05.085Z,8.90
2019-03-19T15:48:34.932Z,8.90
2019-03-19T15:51:04.404Z,8.80
2019-03-19T15:53:33.819Z,8.90
2019-03-19T15:56:03.211Z,8.90
2019-03-19T15:58:32.595Z,8.90
2019-03-19T16:01:02.017Z,8.80
2019-03-19T16:03:31.377Z,8.80
2019-03-19T16:06:00.787Z,8.80
2019-03-19T16:08:30.342Z,8.70
2019-03-19T16:10:59.818Z,8.70
2019-03-19T16:13:29.297Z,8.50
2019-03-19T16:15:58.718Z,8.40
2019-03-19T16:18:28.191Z,8.40
2019-03-19T16:20:59.112Z,8.40
2019-03-19T16:23:28.423Z,8.30
2019-03-19T16:25:57.795Z,8.30
2019-03-19T16:28:27.236Z,8.30
2019-03-19T16:30:56.700Z,8.30
2019-03-19T16:33:26.129Z,8.20
2019-03-19T16:35:55.497Z,8.20
2019-03-19T16:38:24.848Z,8.20
2019-03-19T16:40:54.212Z,8.20
2019-03-19T16:43:23.732Z,8.10
2019-03-19T16:45:53.107Z,8.10
2019-03-19T16:48:22.441Z,8.10
2019-03-19T16:50:52.875Z,8.00
2019-03-19T16:53:22.244Z,7.90
2019-03-19T16:55:52.747Z,7.80
2019-03-19T16:58:22.252Z,7.70
2019-03-19T17:00:51.732Z,7.60
2019-03-19T17:03:21.139Z,7.50
2019-03-19T17:05:50.609Z,7.50
2019-03-19T17:08:21.401Z,7.40
2019-03-19T17:10:52.205Z,7.30
2019-03-19T17:13:22.364Z,7.30
2019-03-19T17:15:51.783Z,7.20
2019-03-19T17:18:22.324Z,7.10
2019-03-19T17:20:51.870Z,7.10
2019-03-19T17:23:21.276Z,7.10
2019-03-19T17:25:50.765Z,7.00
2019-03-19T17:28:22.752Z,6.90
2019-03-19T17:30:51.247Z,6.90
2019-03-19T17:33:20.723Z,6.90
2019-03-19T17:35:50.494Z,6.80
2019-03-19T17:38:20.470Z,6.70
2019-03-19T17:40:49.793Z,6.70
2019-03-19T17:43:20.917Z,6.60
2019-03-19T17:45:50.327Z,6.50
2019-03-19T17:48:19.707Z,6.50
2019-03-19T17:50:52.714Z,6.40
2019-03-19T17:53:24.222Z,6.30
2019-03-19T17:55:56.485Z,6.40
2019-03-19T17:58:26.167Z,6.40
2019-03-19T18:00:57.299Z,6.40
2019-03-19T18:03:27.322Z,6.40
2019-03-19T18:05:56.755Z,6.30
2019-03-19T18:08:27.772Z,6.30
2019-03-19T18:10:59.980Z,6.30
2019-03-19T18:13:31.071Z,6.30
2019-03-19T18:16:00.706Z,6.30
2019-03-19T18:18:30.185Z,6.30
2019-03-19T18:21:00.683Z,6.30
2019-03-19T18:23:31.021Z,6.20
2019-03-19T18:26:02.289Z,6.20
2019-03-19T18:28:35.644Z,6.10
2019-03-19T18:31:05.120Z,6.10
2019-03-19T18:33:34.539Z,6.00
2019-03-19T18:36:04.221Z,6.00
2019-03-19T18:38:33.750Z,6.00
2019-03-19T18:41:03.135Z,6.00
2019-03-19T18:43:32.613Z,6.00
2019-03-19T18:46:02.360Z,6.00
2019-03-19T18:48:31.762Z,5.90
2019-03-19T18:51:02.357Z,5.90
2019-03-19T18:53:31.713Z,5.90
2019-03-19T18:56:01.086Z,5.90
2019-03-19T18:58:30.424Z,5.90
2019-03-19T19:00:59.877Z,5.90
2019-03-19T19:03:29.244Z,5.80
2019-03-19T19:05:58.719Z,5.80
2019-03-19T19:08:29.779Z,5.80
2019-03-19T19:10:59.156Z,5.80
2019-03-19T19:13:28.584Z,5.80
2019-03-19T19:15:57.990Z,5.70
2019-03-19T19:18:27.504Z,5.70
2019-03-19T19:20:58.058Z,5.70
2019-03-19T19:23:27.648Z,5.70
2019-03-19T19:25:57.069Z,5.70
2019-03-19T19:28:26.543Z,5.70
2019-03-19T19:30:57.068Z,5.70
2019-03-19T19:33:26.530Z,5.70
2019-03-19T19:35:55.987Z,5.60
2019-03-19T19:38:25.396Z,5.60
2019-03-19T19:40:54.902Z,5.60
2019-03-19T19:43:24.368Z,5.50
2019-03-19T19:45:54.072Z,5.40
2019-03-19T19:48:23.551Z,5.30
2019-03-19T19:50:53.053Z,5.20
2019-03-19T19:53:23.438Z,5.20
2019-03-19T19:55:53.068Z,5.20
2019-03-19T19:58:30.488Z,5.20
2019-03-19T20:00:59.847Z,5.20
2019-03-19T20:03:32.862Z,5.10
2019-03-19T20:06:02.551Z,5.10
2019-03-19T20:08:32.210Z,5.20
2019-03-19T20:11:01.677Z,5.20
2019-03-19T20:13:31.144Z,5.20
2019-03-19T20:16:00.672Z,5.10
2019-03-19T20:18:30.178Z,5.10
2019-03-19T20:20:59.769Z,5.10
2019-03-19T20:23:29.245Z,5.10
2019-03-19T20:25:58.696Z,5.00
2019-03-19T20:28:28.277Z,5.00
2019-03-19T20:30:57.745Z,5.00
2019-03-19T20:33:27.330Z,4.90
2019-03-19T20:35:56.807Z,4.90
2019-03-19T20:38:26.259Z,4.90
2019-03-19T20:40:55.618Z,4.90
2019-03-19T20:43:25.088Z,4.90
2019-03-19T20:45:55.581Z,4.80
2019-03-19T20:48:26.063Z,4.80
2019-03-19T20:50:57.600Z,4.70
2019-03-19T20:53:27.826Z,4.70
2019-03-19T20:55:57.851Z,4.70
2019-03-19T20:58:27.223Z,4.70
2019-03-19T21:00:56.581Z,4.60
2019-03-19T21:03:35.483Z,4.70
2019-03-19T21:06:01.882Z,4.70
2019-03-19T21:08:31.237Z,4.70
2019-03-19T21:11:00.700Z,4.60
2019-03-19T21:13:30.079Z,4.70
2019-03-19T21:15:59.670Z,4.70
2019-03-19T21:18:29.157Z,4.80
2019-03-19T21:20:58.713Z,4.80
2019-03-19T21:23:28.187Z,4.80
2019-03-19T21:25:58.143Z,4.80
2019-03-19T21:28:27.476Z,4.60
2019-03-19T21:30:56.932Z,4.50
2019-03-19T21:33:26.382Z,4.40
2019-03-19T21:35:56.730Z,4.30
2019-03-19T21:38:26.163Z,4.30
2019-03-19T21:40:57.265Z,4.30
2019-03-19T21:43:26.615Z,4.30
2019-03-19T21:45:55.943Z,4.30
2019-03-19T21:48:25.327Z,4.40
2019-03-19T21:50:54.680Z,4.40
2019-03-19T21:53:24.090Z,4.50
2019-03-19T21:55:53.548Z,4.50
2019-03-19T21:58:22.969Z,4.50
2019-03-19T22:00:57.204Z,4.50
2019-03-19T22:03:26.650Z,4.50
2019-03-19T22:05:57.719Z,4.50
2019-03-19T22:08:27.124Z,4.50
2019-03-19T22:10:56.463Z,4.50
2019-03-19T22:13:25.811Z,4.40
2019-03-19T22:15:58.297Z,4.30
2019-03-19T22:18:27.708Z,4.20
2019-03-19T22:20:57.039Z,4.10
2019-03-19T22:23:26.419Z,4.10
2019-03-19T22:25:56.782Z,4.10
2019-03-19T22:28:26.205Z,4.10
2019-03-19T22:30:58.065Z,4.20
2019-03-19T22:33:27.488Z,4.20
2019-03-19T22:35:56.952Z,4.20
2019-03-19T22:38:26.637Z,4.20
2019-03-19T22:40:56.039Z,4.10
2019-03-19T22:43:26.051Z,4.10
2019-03-19T22:45:56.704Z,4.00
2019-03-19T22:48:27.564Z,3.90
2019-03-19T22:50:56.956Z,3.80
2019-03-19T22:53:26.481Z,3.80
2019-03-19T22:55:55.824Z,3.80
2019-03-19T22:58:25.164Z,3.80
2019-03-19T23:00:55.103Z,3.80
2019-03-19T23:03:24.445Z,3.80
2019-03-19T23:05:53.805Z,3.80
2019-03-19T23:08:23.207Z,3.70
2019-03-19T23:10:52.648Z,3.70
2019-03-19T23:13:22.081Z,3.70
2019-03-19T23:15:51.481Z,3.60
2019-03-19T23:18:21.031Z,3.60
2019-03-19T23:20:50.456Z,3.60
2019-03-19T23:23:19.811Z,3.50
2019-03-19T23:25:49.158Z,3.50
2019-03-19T23:28:18.482Z,3.50
2019-03-19T23:30:47.825Z,3.50
2019-03-19T23:33:17.243Z,3.40
2019-03-19T23:35:46.582Z,3.40
2019-03-19T23:38:15.984Z,3.40
2019-03-19T23:40:45.418Z,3.40
2019-03-19T23:43:15.408Z,3.40
2019-03-19T23:45:44.790Z,3.40
2019-03-19T23:48:14.195Z,3.40
2019-03-19T23:50:43.515Z,3.40
2019-03-19T23:53:12.876Z,3.30
2019-03-19T23:55:42.217Z,3.20
2019-03-19T23:58:11.557Z,3.20
